sensor_id;sensor_type;location;lat;lon;timestamp;P1;durP1;ratioP1;P2;durP2;ratioP2
5257;SDS011;2651;51.594;9.928;2022-12-19T00:01:02;17.73;;;9.38;;
5257;SDS011;2651;51.594;9.928;2022-12-19T00:02:26;13.95;;;8.45;;
5257;SDS011;2651;51.594;9.928;2022-12-19T00:03:28;14.18;;;8.65;;
5257;SDS011;2651;51.594;9.928;2022-12-19T00:04:31;15.75;;;9.07;;
5257;SDS011;2651;51.594;9.928;2022-12-19T00:05:36;13.73;;;8.20;;
5257;SDS011;2651;51.594;9.928;2022-12-19T00:06:39;11.57;;;7.38;;
5257;SDS011;2651;51.594;9.928;2022-12-19T00:07:46;12.75;;;7.93;;
5257;SDS011;2651;51.594;9.928;2022-12-19T00:08:49;11.68;;;7.50;;
5257;SDS011;2651;51.594;9.928;2022-12-19T00:09:52;14.20;;;7.95;;
5257;SDS011;2651;51.594;9.928;2022-12-19T00:10:55;18.02;;;8.32;;
5257;SDS011;2651;51.594;9.928;2022-12-19T00:11:58;11.73;;;8.23;;
5257;SDS011;2651;51.594;9.928;2022-12-19T00:13:00;14.10;;;7.63;;
5257;SDS011;2651;51.594;9.928;2022-12-19T00:14:01;12.57;;;7.57;;
5257;SDS011;2651;51.594;9.928;2022-12-19T00:15:03;15.85;;;8.30;;
5257;SDS011;2651;51.594;9.928;2022-12-19T00:16:06;15.05;;;8.40;;
5257;SDS011;2651;51.594;9.928;2022-12-19T00:17:14;12.05;;;7.90;;
5257;SDS011;2651;51.594;9.928;2022-12-19T00:18:15;14.48;;;8.73;;
5257;SDS011;2651;51.594;9.928;2022-12-19T00:19:17;15.05;;;7.97;;
5257;SDS011;2651;51.594;9.928;2022-12-19T00:20:19;11.63;;;7.40;;
5257;SDS011;2651;51.594;9.928;2022-12-19T00:21:21;13.05;;;7.90;;
5257;SDS011;2651;51.594;9.928;2022-12-19T00:22:25;12.32;;;7.95;;
5257;SDS011;2651;51.594;9.928;2022-12-19T00:23:27;14.10;;;7.50;;
5257;SDS011;2651;51.594;9.928;2022-12-19T00:24:30;13.80;;;7.78;;
5257;SDS011;2651;51.594;9.928;2022-12-19T00:25:31;14.32;;;8.15;;
5257;SDS011;2651;51.594;9.928;2022-12-19T00:26:34;12.77;;;7.55;;
5257;SDS011;2651;51.594;9.928;2022-12-19T00:27:36;17.30;;;7.75;;
5257;SDS011;2651;51.594;9.928;2022-12-19T00:28:39;13.27;;;7.93;;
5257;SDS011;2651;51.594;9.928;2022-12-19T00:29:41;11.60;;;6.97;;
5257;SDS011;2651;51.594;9.928;2022-12-19T00:30:43;12.88;;;7.78;;
5257;SDS011;2651;51.594;9.928;2022-12-19T00:31:45;12.70;;;7.97;;
5257;SDS011;2651;51.594;9.928;2022-12-19T00:32:47;14.95;;;7.50;;
5257;SDS011;2651;51.594;9.928;2022-12-19T00:33:48;13.25;;;8.13;;
5257;SDS011;2651;51.594;9.928;2022-12-19T00:34:50;11.63;;;8.02;;
5257;SDS011;2651;51.594;9.928;2022-12-19T00:35:58;14.40;;;8.15;;
5257;SDS011;2651;51.594;9.928;2022-12-19T00:37:01;16.08;;;8.30;;
5257;SDS011;2651;51.594;9.928;2022-12-19T00:38:03;14.55;;;7.68;;
5257;SDS011;2651;51.594;9.928;2022-12-19T00:39:04;11.60;;;7.65;;
5257;SDS011;2651;51.594;9.928;2022-12-19T00:40:08;10.80;;;7.57;;
5257;SDS011;2651;51.594;9.928;2022-12-19T00:41:11;12.00;;;7.18;;
5257;SDS011;2651;51.594;9.928;2022-12-19T00:42:14;16.92;;;8.55;;
5257;SDS011;2651;51.594;9.928;2022-12-19T00:43:16;13.15;;;7.85;;
5257;SDS011;2651;51.594;9.928;2022-12-19T00:44:18;12.10;;;7.45;;
5257;SDS011;2651;51.594;9.928;2022-12-19T00:45:19;11.35;;;7.47;;
5257;SDS011;2651;51.594;9.928;2022-12-19T00:46:21;12.18;;;7.65;;
5257;SDS011;2651;51.594;9.928;2022-12-19T00:47:23;12.50;;;7.88;;
5257;SDS011;2651;51.594;9.928;2022-12-19T00:48:25;13.68;;;7.80;;
5257;SDS011;2651;51.594;9.928;2022-12-19T00:49:27;16.77;;;8.00;;
5257;SDS011;2651;51.594;9.928;2022-12-19T00:50:28;15.27;;;7.45;;
5257;SDS011;2651;51.594;9.928;2022-12-19T00:51:32;10.77;;;7.25;;
5257;SDS011;2651;51.594;9.928;2022-12-19T00:52:35;10.90;;;7.70;;
5257;SDS011;2651;51.594;9.928;2022-12-19T00:53:37;12.65;;;8.20;;
5257;SDS011;2651;51.594;9.928;2022-12-19T00:54:38;14.98;;;8.10;;
5257;SDS011;2651;51.594;9.928;2022-12-19T00:55:40;14.70;;;8.20;;
5257;SDS011;2651;51.594;9.928;2022-12-19T00:56:42;14.48;;;8.30;;
5257;SDS011;2651;51.594;9.928;2022-12-19T00:57:44;13.40;;;7.20;;
5257;SDS011;2651;51.594;9.928;2022-12-19T01:00:27;15.73;;;8.23;;
5257;SDS011;2651;51.594;9.928;2022-12-19T01:01:29;13.60;;;8.23;;
5257;SDS011;2651;51.594;9.928;2022-12-19T01:02:34;10.40;;;7.30;;
5257;SDS011;2651;51.594;9.928;2022-12-19T01:03:36;12.15;;;7.47;;
5257;SDS011;2651;51.594;9.928;2022-12-19T01:04:38;11.23;;;7.18;;
5257;SDS011;2651;51.594;9.928;2022-12-19T01:05:42;12.35;;;7.78;;
5257;SDS011;2651;51.594;9.928;2022-12-19T01:06:44;16.00;;;8.32;;
5257;SDS011;2651;51.594;9.928;2022-12-19T01:07:45;11.68;;;7.30;;
5257;SDS011;2651;51.594;9.928;2022-12-19T01:08:47;11.93;;;7.32;;
5257;SDS011;2651;51.594;9.928;2022-12-19T01:09:49;13.27;;;8.25;;
5257;SDS011;2651;51.594;9.928;2022-12-19T01:10:51;15.02;;;7.03;;
5257;SDS011;2651;51.594;9.928;2022-12-19T01:11:53;15.15;;;8.18;;
5257;SDS011;2651;51.594;9.928;2022-12-19T01:13:14;13.48;;;7.80;;
5257;SDS011;2651;51.594;9.928;2022-12-19T01:14:17;15.18;;;7.30;;
5257;SDS011;2651;51.594;9.928;2022-12-19T01:15:23;14.02;;;8.93;;
5257;SDS011;2651;51.594;9.928;2022-12-19T01:16:25;16.63;;;7.40;;
5257;SDS011;2651;51.594;9.928;2022-12-19T01:17:26;11.23;;;7.57;;
5257;SDS011;2651;51.594;9.928;2022-12-19T01:18:28;11.63;;;7.45;;
5257;SDS011;2651;51.594;9.928;2022-12-19T01:19:30;10.60;;;7.05;;
5257;SDS011;2651;51.594;9.928;2022-12-19T01:20:31;10.25;;;7.35;;
5257;SDS011;2651;51.594;9.928;2022-12-19T01:21:34;14.95;;;8.50;;
5257;SDS011;2651;51.594;9.928;2022-12-19T01:22:36;14.43;;;7.88;;
5257;SDS011;2651;51.594;9.928;2022-12-19T01:23:38;13.35;;;7.57;;
5257;SDS011;2651;51.594;9.928;2022-12-19T01:24:39;13.30;;;7.68;;
5257;SDS011;2651;51.594;9.928;2022-12-19T01:25:41;12.10;;;6.97;;
5257;SDS011;2651;51.594;9.928;2022-12-19T01:26:46;12.07;;;7.60;;
5257;SDS011;2651;51.594;9.928;2022-12-19T01:27:47;15.20;;;7.88;;
5257;SDS011;2651;51.594;9.928;2022-12-19T01:28:49;15.38;;;8.32;;
5257;SDS011;2651;51.594;9.928;2022-12-19T01:29:51;10.68;;;7.35;;
5257;SDS011;2651;51.594;9.928;2022-12-19T01:30:53;12.60;;;8.23;;
5257;SDS011;2651;51.594;9.928;2022-12-19T01:31:54;10.48;;;7.82;;
5257;SDS011;2651;51.594;9.928;2022-12-19T01:32:56;13.38;;;8.07;;
5257;SDS011;2651;51.594;9.928;2022-12-19T01:33:59;15.13;;;9.95;;
5257;SDS011;2651;51.594;9.928;2022-12-19T01:35:01;12.15;;;8.30;;
5257;SDS011;2651;51.594;9.928;2022-12-19T01:36:04;20.92;;;9.52;;
5257;SDS011;2651;51.594;9.928;2022-12-19T01:37:07;29.55;;;11.30;;
5257;SDS011;2651;51.594;9.928;2022-12-19T01:38:12;22.05;;;10.90;;
5257;SDS011;2651;51.594;9.928;2022-12-19T01:39:15;17.17;;;9.32;;
5257;SDS011;2651;51.594;9.928;2022-12-19T01:40:18;16.35;;;8.65;;
5257;SDS011;2651;51.594;9.928;2022-12-19T01:41:23;17.30;;;9.10;;
5257;SDS011;2651;51.594;9.928;2022-12-19T01:42:25;14.88;;;8.90;;
5257;SDS011;2651;51.594;9.928;2022-12-19T01:43:52;16.83;;;9.40;;
5257;SDS011;2651;51.594;9.928;2022-12-19T01:46:13;18.00;;;9.20;;
5257;SDS011;2651;51.594;9.928;2022-12-19T01:47:17;20.35;;;8.90;;
5257;SDS011;2651;51.594;9.928;2022-12-19T01:48:21;18.67;;;10.05;;
5257;SDS011;2651;51.594;9.928;2022-12-19T01:49:35;15.20;;;8.55;;
5257;SDS011;2651;51.594;9.928;2022-12-19T01:52:03;16.42;;;10.52;;
5257;SDS011;2651;51.594;9.928;2022-12-19T01:53:08;14.95;;;10.18;;
5257;SDS011;2651;51.594;9.928;2022-12-19T01:54:18;15.40;;;8.57;;
5257;SDS011;2651;51.594;9.928;2022-12-19T01:55:23;18.42;;;9.55;;
5257;SDS011;2651;51.594;9.928;2022-12-19T01:56:27;19.75;;;9.68;;
5257;SDS011;2651;51.594;9.928;2022-12-19T01:57:31;14.40;;;8.73;;
5257;SDS011;2651;51.594;9.928;2022-12-19T01:58:39;12.57;;;8.27;;
5257;SDS011;2651;51.594;9.928;2022-12-19T01:59:47;14.60;;;8.70;;
5257;SDS011;2651;51.594;9.928;2022-12-19T02:00:52;14.30;;;8.95;;
5257;SDS011;2651;51.594;9.928;2022-12-19T02:01:57;17.80;;;9.77;;
5257;SDS011;2651;51.594;9.928;2022-12-19T02:03:11;16.63;;;9.30;;
5257;SDS011;2651;51.594;9.928;2022-12-19T02:04:23;16.05;;;9.27;;
5257;SDS011;2651;51.594;9.928;2022-12-19T02:05:29;16.55;;;9.45;;
5257;SDS011;2651;51.594;9.928;2022-12-19T02:06:32;16.05;;;9.35;;
5257;SDS011;2651;51.594;9.928;2022-12-19T02:07:35;18.88;;;9.45;;
5257;SDS011;2651;51.594;9.928;2022-12-19T02:08:38;14.25;;;8.48;;
5257;SDS011;2651;51.594;9.928;2022-12-19T02:09:45;18.60;;;9.02;;
5257;SDS011;2651;51.594;9.928;2022-12-19T02:10:57;18.05;;;9.18;;
5257;SDS011;2651;51.594;9.928;2022-12-19T02:11:58;15.35;;;9.13;;
5257;SDS011;2651;51.594;9.928;2022-12-19T02:13:01;16.80;;;9.73;;
5257;SDS011;2651;51.594;9.928;2022-12-19T02:14:02;17.35;;;9.70;;
5257;SDS011;2651;51.594;9.928;2022-12-19T02:15:04;18.20;;;9.80;;
5257;SDS011;2651;51.594;9.928;2022-12-19T02:17:23;19.67;;;10.45;;
5257;SDS011;2651;51.594;9.928;2022-12-19T02:21:14;15.48;;;9.50;;
5257;SDS011;2651;51.594;9.928;2022-12-19T02:23:11;19.00;;;9.43;;
5257;SDS011;2651;51.594;9.928;2022-12-19T02:27:34;18.80;;;10.55;;
5257;SDS011;2651;51.594;9.928;2022-12-19T02:31:40;15.55;;;10.25;;
5257;SDS011;2651;51.594;9.928;2022-12-19T02:34:36;16.38;;;10.18;;
5257;SDS011;2651;51.594;9.928;2022-12-19T02:36:57;17.15;;;11.10;;
5257;SDS011;2651;51.594;9.928;2022-12-19T02:38:12;15.82;;;9.60;;
5257;SDS011;2651;51.594;9.928;2022-12-19T02:39:37;16.15;;;11.80;;
5257;SDS011;2651;51.594;9.928;2022-12-19T02:40:57;15.95;;;10.30;;
5257;SDS011;2651;51.594;9.928;2022-12-19T02:42:10;22.00;;;10.73;;
5257;SDS011;2651;51.594;9.928;2022-12-19T02:43:17;16.50;;;10.40;;
5257;SDS011;2651;51.594;9.928;2022-12-19T02:44:28;19.27;;;10.70;;
5257;SDS011;2651;51.594;9.928;2022-12-19T02:45:36;15.25;;;9.73;;
5257;SDS011;2651;51.594;9.928;2022-12-19T02:46:41;15.98;;;10.45;;
5257;SDS011;2651;51.594;9.928;2022-12-19T02:47:45;18.70;;;10.70;;
5257;SDS011;2651;51.594;9.928;2022-12-19T02:48:47;15.98;;;10.00;;
5257;SDS011;2651;51.594;9.928;2022-12-19T02:49:49;15.57;;;9.57;;
5257;SDS011;2651;51.594;9.928;2022-12-19T02:50:51;15.73;;;9.25;;
5257;SDS011;2651;51.594;9.928;2022-12-19T02:51:52;11.25;;;6.97;;
5257;SDS011;2651;51.594;9.928;2022-12-19T02:52:54;13.25;;;9.10;;
5257;SDS011;2651;51.594;9.928;2022-12-19T02:53:55;13.07;;;8.45;;
5257;SDS011;2651;51.594;9.928;2022-12-19T02:54:58;18.95;;;7.95;;
5257;SDS011;2651;51.594;9.928;2022-12-19T02:57:34;13.77;;;8.18;;
5257;SDS011;2651;51.594;9.928;2022-12-19T03:08:46;14.77;;;9.82;;
5257;SDS011;2651;51.594;9.928;2022-12-19T03:10:45;19.02;;;10.25;;
5257;SDS011;2651;51.594;9.928;2022-12-19T03:11:29;17.40;;;10.60;;
5257;SDS011;2651;51.594;9.928;2022-12-19T03:12:47;14.93;;;9.98;;
5257;SDS011;2651;51.594;9.928;2022-12-19T03:13:55;15.82;;;9.90;;
5257;SDS011;2651;51.594;9.928;2022-12-19T03:15:01;20.05;;;12.30;;
5257;SDS011;2651;51.594;9.928;2022-12-19T03:16:04;16.95;;;9.90;;
5257;SDS011;2651;51.594;9.928;2022-12-19T03:17:09;15.43;;;10.10;;
5257;SDS011;2651;51.594;9.928;2022-12-19T03:18:11;14.77;;;9.80;;
5257;SDS011;2651;51.594;9.928;2022-12-19T03:19:13;16.30;;;9.80;;
5257;SDS011;2651;51.594;9.928;2022-12-19T03:20:25;17.80;;;8.80;;
5257;SDS011;2651;51.594;9.928;2022-12-19T03:21:47;16.38;;;10.02;;
5257;SDS011;2651;51.594;9.928;2022-12-19T03:22:50;16.85;;;10.95;;
5257;SDS011;2651;51.594;9.928;2022-12-19T03:23:53;17.15;;;11.02;;
5257;SDS011;2651;51.594;9.928;2022-12-19T03:24:56;15.32;;;9.55;;
5257;SDS011;2651;51.594;9.928;2022-12-19T03:26:03;13.63;;;9.57;;
5257;SDS011;2651;51.594;9.928;2022-12-19T03:27:10;16.38;;;9.82;;
5257;SDS011;2651;51.594;9.928;2022-12-19T03:28:22;15.07;;;9.95;;
5257;SDS011;2651;51.594;9.928;2022-12-19T03:29:40;15.45;;;9.50;;
5257;SDS011;2651;51.594;9.928;2022-12-19T03:30:46;17.35;;;10.35;;
5257;SDS011;2651;51.594;9.928;2022-12-19T03:31:49;12.68;;;9.18;;
5257;SDS011;2651;51.594;9.928;2022-12-19T03:32:51;12.88;;;8.98;;
5257;SDS011;2651;51.594;9.928;2022-12-19T03:33:56;17.00;;;10.35;;
5257;SDS011;2651;51.594;9.928;2022-12-19T03:36:11;14.88;;;9.57;;
5257;SDS011;2651;51.594;9.928;2022-12-19T03:37:19;16.10;;;10.50;;
5257;SDS011;2651;51.594;9.928;2022-12-19T03:38:24;17.67;;;10.27;;
5257;SDS011;2651;51.594;9.928;2022-12-19T03:39:28;19.98;;;8.63;;
5257;SDS011;2651;51.594;9.928;2022-12-19T03:40:32;18.77;;;9.18;;
5257;SDS011;2651;51.594;9.928;2022-12-19T03:41:35;15.13;;;9.32;;
5257;SDS011;2651;51.594;9.928;2022-12-19T03:42:59;14.52;;;8.70;;
5257;SDS011;2651;51.594;9.928;2022-12-19T03:44:09;15.70;;;9.38;;
5257;SDS011;2651;51.594;9.928;2022-12-19T03:45:14;15.77;;;9.38;;
5257;SDS011;2651;51.594;9.928;2022-12-19T03:46:23;17.83;;;9.45;;
5257;SDS011;2651;51.594;9.928;2022-12-19T03:47:41;16.95;;;8.05;;
5257;SDS011;2651;51.594;9.928;2022-12-19T03:48:48;14.63;;;10.45;;
5257;SDS011;2651;51.594;9.928;2022-12-19T03:49:52;13.95;;;9.95;;
5257;SDS011;2651;51.594;9.928;2022-12-19T03:50:59;16.17;;;8.38;;
5257;SDS011;2651;51.594;9.928;2022-12-19T03:53:27;14.82;;;10.20;;
5257;SDS011;2651;51.594;9.928;2022-12-19T03:54:32;17.33;;;10.23;;
5257;SDS011;2651;51.594;9.928;2022-12-19T03:55:38;17.13;;;9.35;;
5257;SDS011;2651;51.594;9.928;2022-12-19T03:57:01;15.80;;;9.45;;
5257;SDS011;2651;51.594;9.928;2022-12-19T03:58:08;16.05;;;9.13;;
5257;SDS011;2651;51.594;9.928;2022-12-19T03:59:18;18.52;;;10.27;;
5257;SDS011;2651;51.594;9.928;2022-12-19T04:00:36;13.82;;;9.00;;
5257;SDS011;2651;51.594;9.928;2022-12-19T04:01:40;16.90;;;9.30;;
5257;SDS011;2651;51.594;9.928;2022-12-19T04:02:45;17.45;;;9.07;;
5257;SDS011;2651;51.594;9.928;2022-12-19T04:03:49;14.98;;;8.27;;
5257;SDS011;2651;51.594;9.928;2022-12-19T04:04:55;13.57;;;9.07;;
5257;SDS011;2651;51.594;9.928;2022-12-19T04:06:00;15.25;;;8.80;;
5257;SDS011;2651;51.594;9.928;2022-12-19T04:07:03;14.02;;;8.70;;
5257;SDS011;2651;51.594;9.928;2022-12-19T04:08:07;14.75;;;7.28;;
5257;SDS011;2651;51.594;9.928;2022-12-19T04:09:11;18.35;;;9.50;;
5257;SDS011;2651;51.594;9.928;2022-12-19T04:10:21;13.70;;;8.48;;
5257;SDS011;2651;51.594;9.928;2022-12-19T04:11:26;15.30;;;8.80;;
5257;SDS011;2651;51.594;9.928;2022-12-19T04:12:36;15.43;;;9.05;;
5257;SDS011;2651;51.594;9.928;2022-12-19T04:13:42;16.17;;;9.60;;
5257;SDS011;2651;51.594;9.928;2022-12-19T04:14:51;16.50;;;9.32;;
5257;SDS011;2651;51.594;9.928;2022-12-19T04:16:05;15.55;;;8.75;;
5257;SDS011;2651;51.594;9.928;2022-12-19T04:17:38;19.25;;;10.43;;
5257;SDS011;2651;51.594;9.928;2022-12-19T04:18:46;17.02;;;10.90;;
5257;SDS011;2651;51.594;9.928;2022-12-19T04:21:22;15.75;;;10.45;;
5257;SDS011;2651;51.594;9.928;2022-12-19T04:22:31;21.48;;;11.10;;
5257;SDS011;2651;51.594;9.928;2022-12-19T04:23:41;17.20;;;11.10;;
5257;SDS011;2651;51.594;9.928;2022-12-19T04:24:47;16.90;;;10.75;;
5257;SDS011;2651;51.594;9.928;2022-12-19T04:25:53;17.73;;;10.80;;
5257;SDS011;2651;51.594;9.928;2022-12-19T04:26:59;16.95;;;10.23;;
5257;SDS011;2651;51.594;9.928;2022-12-19T04:28:04;13.05;;;7.32;;
5257;SDS011;2651;51.594;9.928;2022-12-19T04:29:10;17.45;;;9.85;;
5257;SDS011;2651;51.594;9.928;2022-12-19T04:30:14;14.05;;;7.90;;
5257;SDS011;2651;51.594;9.928;2022-12-19T04:31:17;17.42;;;8.68;;
5257;SDS011;2651;51.594;9.928;2022-12-19T04:32:21;14.82;;;9.50;;
5257;SDS011;2651;51.594;9.928;2022-12-19T04:33:24;14.75;;;9.68;;
5257;SDS011;2651;51.594;9.928;2022-12-19T04:34:26;14.60;;;9.77;;
5257;SDS011;2651;51.594;9.928;2022-12-19T04:35:28;15.65;;;8.90;;
5257;SDS011;2651;51.594;9.928;2022-12-19T04:36:29;16.92;;;9.82;;
5257;SDS011;2651;51.594;9.928;2022-12-19T04:37:31;17.50;;;10.10;;
5257;SDS011;2651;51.594;9.928;2022-12-19T04:38:33;15.05;;;10.13;;
5257;SDS011;2651;51.594;9.928;2022-12-19T04:39:34;16.42;;;9.55;;
5257;SDS011;2651;51.594;9.928;2022-12-19T04:40:36;13.43;;;8.73;;
5257;SDS011;2651;51.594;9.928;2022-12-19T04:41:42;17.63;;;9.52;;
5257;SDS011;2651;51.594;9.928;2022-12-19T04:42:44;10.85;;;6.60;;
5257;SDS011;2651;51.594;9.928;2022-12-19T04:43:45;18.63;;;9.45;;
5257;SDS011;2651;51.594;9.928;2022-12-19T04:44:47;15.48;;;8.02;;
5257;SDS011;2651;51.594;9.928;2022-12-19T04:45:48;14.88;;;7.47;;
5257;SDS011;2651;51.594;9.928;2022-12-19T04:46:57;16.80;;;9.45;;
5257;SDS011;2651;51.594;9.928;2022-12-19T04:47:58;12.88;;;8.73;;
5257;SDS011;2651;51.594;9.928;2022-12-19T04:49:00;20.67;;;9.90;;
5257;SDS011;2651;51.594;9.928;2022-12-19T04:50:02;14.82;;;9.38;;
5257;SDS011;2651;51.594;9.928;2022-12-19T04:51:05;13.82;;;8.95;;
5257;SDS011;2651;51.594;9.928;2022-12-19T04:52:06;16.25;;;8.90;;
5257;SDS011;2651;51.594;9.928;2022-12-19T04:53:08;17.33;;;10.10;;
5257;SDS011;2651;51.594;9.928;2022-12-19T04:54:11;17.83;;;9.75;;
5257;SDS011;2651;51.594;9.928;2022-12-19T04:55:13;18.77;;;9.70;;
5257;SDS011;2651;51.594;9.928;2022-12-19T04:56:14;16.98;;;10.07;;
5257;SDS011;2651;51.594;9.928;2022-12-19T04:57:16;18.05;;;9.75;;
5257;SDS011;2651;51.594;9.928;2022-12-19T04:58:18;17.23;;;10.07;;
5257;SDS011;2651;51.594;9.928;2022-12-19T04:59:22;15.77;;;9.80;;
5257;SDS011;2651;51.594;9.928;2022-12-19T05:00:24;20.95;;;11.88;;
5257;SDS011;2651;51.594;9.928;2022-12-19T05:01:26;18.55;;;9.63;;
5257;SDS011;2651;51.594;9.928;2022-12-19T05:02:28;17.20;;;9.60;;
5257;SDS011;2651;51.594;9.928;2022-12-19T05:03:30;17.15;;;10.25;;
5257;SDS011;2651;51.594;9.928;2022-12-19T05:04:33;16.60;;;9.65;;
5257;SDS011;2651;51.594;9.928;2022-12-19T05:05:34;16.17;;;8.75;;
5257;SDS011;2651;51.594;9.928;2022-12-19T05:06:36;18.63;;;9.20;;
5257;SDS011;2651;51.594;9.928;2022-12-19T05:07:38;16.23;;;9.75;;
5257;SDS011;2651;51.594;9.928;2022-12-19T05:08:41;17.50;;;10.30;;
5257;SDS011;2651;51.594;9.928;2022-12-19T05:09:43;14.82;;;8.82;;
5257;SDS011;2651;51.594;9.928;2022-12-19T05:10:44;16.67;;;9.93;;
5257;SDS011;2651;51.594;9.928;2022-12-19T05:11:46;17.65;;;10.38;;
5257;SDS011;2651;51.594;9.928;2022-12-19T05:12:48;20.73;;;10.70;;
5257;SDS011;2651;51.594;9.928;2022-12-19T05:13:49;16.73;;;9.15;;
5257;SDS011;2651;51.594;9.928;2022-12-19T05:14:51;17.65;;;10.52;;
5257;SDS011;2651;51.594;9.928;2022-12-19T05:16:00;16.70;;;9.55;;
5257;SDS011;2651;51.594;9.928;2022-12-19T05:17:03;20.83;;;11.10;;
5257;SDS011;2651;51.594;9.928;2022-12-19T05:18:05;18.52;;;9.32;;
5257;SDS011;2651;51.594;9.928;2022-12-19T05:19:07;17.92;;;11.05;;
5257;SDS011;2651;51.594;9.928;2022-12-19T05:20:08;19.58;;;10.23;;
5257;SDS011;2651;51.594;9.928;2022-12-19T05:21:11;18.92;;;10.35;;
5257;SDS011;2651;51.594;9.928;2022-12-19T05:22:13;17.23;;;9.30;;
5257;SDS011;2651;51.594;9.928;2022-12-19T05:23:14;15.38;;;9.38;;
5257;SDS011;2651;51.594;9.928;2022-12-19T05:24:18;16.02;;;9.65;;
5257;SDS011;2651;51.594;9.928;2022-12-19T05:25:19;14.32;;;8.77;;
5257;SDS011;2651;51.594;9.928;2022-12-19T05:26:21;17.23;;;10.20;;
5257;SDS011;2651;51.594;9.928;2022-12-19T05:27:23;19.17;;;10.60;;
5257;SDS011;2651;51.594;9.928;2022-12-19T05:28:25;16.00;;;9.40;;
5257;SDS011;2651;51.594;9.928;2022-12-19T05:29:26;18.40;;;10.98;;
5257;SDS011;2651;51.594;9.928;2022-12-19T05:30:28;18.50;;;10.23;;
5257;SDS011;2651;51.594;9.928;2022-12-19T05:31:32;17.55;;;10.23;;
5257;SDS011;2651;51.594;9.928;2022-12-19T05:32:34;19.10;;;10.98;;
5257;SDS011;2651;51.594;9.928;2022-12-19T05:33:36;19.40;;;10.50;;
5257;SDS011;2651;51.594;9.928;2022-12-19T05:34:38;17.65;;;9.77;;
5257;SDS011;2651;51.594;9.928;2022-12-19T05:35:39;16.77;;;8.65;;
5257;SDS011;2651;51.594;9.928;2022-12-19T05:36:41;17.40;;;10.32;;
5257;SDS011;2651;51.594;9.928;2022-12-19T05:37:43;22.63;;;10.50;;
5257;SDS011;2651;51.594;9.928;2022-12-19T05:38:45;18.55;;;10.38;;
5257;SDS011;2651;51.594;9.928;2022-12-19T05:39:47;14.90;;;9.43;;
5257;SDS011;2651;51.594;9.928;2022-12-19T05:40:48;19.05;;;10.98;;
5257;SDS011;2651;51.594;9.928;2022-12-19T05:41:50;12.38;;;8.00;;
5257;SDS011;2651;51.594;9.928;2022-12-19T05:42:52;21.30;;;10.25;;
5257;SDS011;2651;51.594;9.928;2022-12-19T05:43:54;21.00;;;10.25;;
5257;SDS011;2651;51.594;9.928;2022-12-19T05:44:56;21.83;;;11.45;;
5257;SDS011;2651;51.594;9.928;2022-12-19T05:45:58;17.27;;;10.20;;
5257;SDS011;2651;51.594;9.928;2022-12-19T05:47:00;14.55;;;8.70;;
5257;SDS011;2651;51.594;9.928;2022-12-19T05:48:01;18.48;;;9.73;;
5257;SDS011;2651;51.594;9.928;2022-12-19T05:49:03;18.80;;;10.80;;
5257;SDS011;2651;51.594;9.928;2022-12-19T05:50:05;18.50;;;10.32;;
5257;SDS011;2651;51.594;9.928;2022-12-19T05:51:07;18.95;;;10.88;;
5257;SDS011;2651;51.594;9.928;2022-12-19T05:52:09;17.63;;;11.00;;
5257;SDS011;2651;51.594;9.928;2022-12-19T05:53:11;14.77;;;8.70;;
5257;SDS011;2651;51.594;9.928;2022-12-19T05:54:13;14.32;;;9.60;;
5257;SDS011;2651;51.594;9.928;2022-12-19T05:55:15;19.33;;;10.73;;
5257;SDS011;2651;51.594;9.928;2022-12-19T05:56:19;18.17;;;11.23;;
5257;SDS011;2651;51.594;9.928;2022-12-19T05:57:22;16.95;;;11.13;;
5257;SDS011;2651;51.594;9.928;2022-12-19T05:58:24;16.42;;;10.75;;
5257;SDS011;2651;51.594;9.928;2022-12-19T05:59:25;15.65;;;9.38;;
5257;SDS011;2651;51.594;9.928;2022-12-19T06:00:27;15.10;;;10.05;;
5257;SDS011;2651;51.594;9.928;2022-12-19T06:01:29;17.77;;;10.00;;
5257;SDS011;2651;51.594;9.928;2022-12-19T06:02:32;21.52;;;11.13;;
5257;SDS011;2651;51.594;9.928;2022-12-19T06:03:34;19.70;;;11.23;;
5257;SDS011;2651;51.594;9.928;2022-12-19T06:04:36;23.42;;;11.70;;
5257;SDS011;2651;51.594;9.928;2022-12-19T06:05:38;19.67;;;11.23;;
5257;SDS011;2651;51.594;9.928;2022-12-19T06:06:39;15.18;;;9.90;;
5257;SDS011;2651;51.594;9.928;2022-12-19T06:07:41;18.13;;;11.07;;
5257;SDS011;2651;51.594;9.928;2022-12-19T06:08:43;17.35;;;10.02;;
5257;SDS011;2651;51.594;9.928;2022-12-19T06:09:45;15.60;;;9.82;;
5257;SDS011;2651;51.594;9.928;2022-12-19T06:10:46;16.48;;;9.90;;
5257;SDS011;2651;51.594;9.928;2022-12-19T06:11:48;18.65;;;10.43;;
5257;SDS011;2651;51.594;9.928;2022-12-19T06:12:50;19.25;;;11.35;;
5257;SDS011;2651;51.594;9.928;2022-12-19T06:13:51;19.52;;;9.85;;
5257;SDS011;2651;51.594;9.928;2022-12-19T06:14:53;20.55;;;10.50;;
5257;SDS011;2651;51.594;9.928;2022-12-19T06:15:55;17.20;;;8.25;;
5257;SDS011;2651;51.594;9.928;2022-12-19T06:17:08;14.05;;;8.70;;
5257;SDS011;2651;51.594;9.928;2022-12-19T06:18:10;19.88;;;12.20;;
5257;SDS011;2651;51.594;9.928;2022-12-19T06:19:11;18.92;;;10.50;;
5257;SDS011;2651;51.594;9.928;2022-12-19T06:20:14;18.98;;;11.80;;
5257;SDS011;2651;51.594;9.928;2022-12-19T06:21:16;19.45;;;10.85;;
5257;SDS011;2651;51.594;9.928;2022-12-19T06:22:19;27.40;;;11.18;;
5257;SDS011;2651;51.594;9.928;2022-12-19T06:23:21;21.20;;;10.70;;
5257;SDS011;2651;51.594;9.928;2022-12-19T06:24:23;21.23;;;11.45;;
5257;SDS011;2651;51.594;9.928;2022-12-19T06:25:25;21.40;;;10.43;;
5257;SDS011;2651;51.594;9.928;2022-12-19T06:26:27;21.08;;;11.82;;
5257;SDS011;2651;51.594;9.928;2022-12-19T06:27:28;18.02;;;9.85;;
5257;SDS011;2651;51.594;9.928;2022-12-19T06:28:30;18.95;;;10.88;;
5257;SDS011;2651;51.594;9.928;2022-12-19T06:29:33;22.67;;;11.27;;
5257;SDS011;2651;51.594;9.928;2022-12-19T06:30:35;25.25;;;12.00;;
5257;SDS011;2651;51.594;9.928;2022-12-19T06:31:36;20.15;;;11.10;;
5257;SDS011;2651;51.594;9.928;2022-12-19T06:32:38;20.98;;;11.50;;
5257;SDS011;2651;51.594;9.928;2022-12-19T06:33:41;21.95;;;12.45;;
5257;SDS011;2651;51.594;9.928;2022-12-19T06:34:42;25.50;;;12.00;;
5257;SDS011;2651;51.594;9.928;2022-12-19T06:36:15;22.00;;;11.27;;
5257;SDS011;2651;51.594;9.928;2022-12-19T06:37:19;23.65;;;12.35;;
5257;SDS011;2651;51.594;9.928;2022-12-19T06:38:21;22.13;;;11.10;;
5257;SDS011;2651;51.594;9.928;2022-12-19T06:39:22;21.02;;;12.00;;
5257;SDS011;2651;51.594;9.928;2022-12-19T06:40:24;14.40;;;8.52;;
5257;SDS011;2651;51.594;9.928;2022-12-19T06:41:44;19.17;;;11.75;;
5257;SDS011;2651;51.594;9.928;2022-12-19T06:43:05;18.25;;;9.75;;
5257;SDS011;2651;51.594;9.928;2022-12-19T06:44:07;21.70;;;12.40;;
5257;SDS011;2651;51.594;9.928;2022-12-19T06:45:12;19.85;;;10.18;;
5257;SDS011;2651;51.594;9.928;2022-12-19T06:46:13;21.85;;;10.90;;
5257;SDS011;2651;51.594;9.928;2022-12-19T06:47:15;18.73;;;11.13;;
5257;SDS011;2651;51.594;9.928;2022-12-19T06:48:17;22.15;;;11.43;;
5257;SDS011;2651;51.594;9.928;2022-12-19T06:49:19;19.70;;;11.05;;
5257;SDS011;2651;51.594;9.928;2022-12-19T06:50:20;22.58;;;11.38;;
5257;SDS011;2651;51.594;9.928;2022-12-19T06:51:22;14.18;;;9.65;;
5257;SDS011;2651;51.594;9.928;2022-12-19T06:52:24;22.95;;;12.77;;
5257;SDS011;2651;51.594;9.928;2022-12-19T06:53:26;20.13;;;10.23;;
5257;SDS011;2651;51.594;9.928;2022-12-19T06:54:28;26.98;;;12.43;;
5257;SDS011;2651;51.594;9.928;2022-12-19T06:55:29;21.02;;;12.00;;
5257;SDS011;2651;51.594;9.928;2022-12-19T06:56:35;25.10;;;12.50;;
5257;SDS011;2651;51.594;9.928;2022-12-19T06:57:38;21.42;;;10.95;;
5257;SDS011;2651;51.594;9.928;2022-12-19T06:58:46;24.30;;;11.82;;
5257;SDS011;2651;51.594;9.928;2022-12-19T06:59:48;17.90;;;10.45;;
5257;SDS011;2651;51.594;9.928;2022-12-19T07:00:49;18.10;;;10.82;;
5257;SDS011;2651;51.594;9.928;2022-12-19T07:03:25;19.45;;;10.80;;
5257;SDS011;2651;51.594;9.928;2022-12-19T07:04:42;22.00;;;11.73;;
5257;SDS011;2651;51.594;9.928;2022-12-19T07:05:48;17.00;;;9.35;;
5257;SDS011;2651;51.594;9.928;2022-12-19T07:06:50;22.90;;;10.52;;
5257;SDS011;2651;51.594;9.928;2022-12-19T07:07:52;20.25;;;12.73;;